sensor_id;sensor_type;location;lat;lon;timestamp;temperature;humidity
73547;SHT30;61807;48.384;-4.386;2023-04-01T00:00:28;12.31;77.08
73547;SHT30;61807;48.384;-4.386;2023-04-01T00:02:53;12.26;77.14
73547;SHT30;61807;48.384;-4.386;2023-04-01T00:05:19;12.31;77.18
73547;SHT30;61807;48.384;-4.386;2023-04-01T00:07:45;12.32;77.17
73547;SHT30;61807;48.384;-4.386;2023-04-01T00:10:11;12.32;77.11
73547;SHT30;61807;48.384;-4.386;2023-04-01T00:12:38;12.32;77.13
73547;SHT30;61807;48.384;-4.386;2023-04-01T00:15:05;12.31;77.18
73547;SHT30;61807;48.384;-4.386;2023-04-01T00:17:31;12.32;77.26
73547;SHT30;61807;48.384;-4.386;2023-04-01T00:19:57;12.32;77.21
73547;SHT30;61807;48.384;-4.386;2023-04-01T00:22:24;12.33;77.29
73547;SHT30;61807;48.384;-4.386;2023-04-01T00:24:50;12.36;77.31
73547;SHT30;61807;48.384;-4.386;2023-04-01T00:27:16;12.38;77.25
73547;SHT30;61807;48.384;-4.386;2023-04-01T00:29:42;12.38;77.16
73547;SHT30;61807;48.384;-4.386;2023-04-01T00:32:09;12.35;77.20
73547;SHT30;61807;48.384;-4.386;2023-04-01T00:34:34;12.35;77.19
73547;SHT30;61807;48.384;-4.386;2023-04-01T00:36:59;12.35;77.29
73547;SHT30;61807;48.384;-4.386;2023-04-01T00:39:25;12.32;77.20
73547;SHT30;61807;48.384;-4.386;2023-04-01T00:41:53;12.31;77.18
73547;SHT30;61807;48.384;-4.386;2023-04-01T00:44:37;12.29;77.12
73547;SHT30;61807;48.384;-4.386;2023-04-01T00:47:03;12.29;77.14
73547;SHT30;61807;48.384;-4.386;2023-04-01T00:49:37;12.29;77.16
73547;SHT30;61807;48.384;-4.386;2023-04-01T00:52:05;12.31;77.12
73547;SHT30;61807;48.384;-4.386;2023-04-01T00:54:32;12.28;77.11
73547;SHT30;61807;48.384;-4.386;2023-04-01T00:59:59;12.24;77.23
73547;SHT30;61807;48.384;-4.386;2023-04-01T01:02:24;12.25;77.28
73547;SHT30;61807;48.384;-4.386;2023-04-01T01:04:50;12.20;77.34
73547;SHT30;61807;48.384;-4.386;2023-04-01T01:10:18;12.18;77.43
73547;SHT30;61807;48.384;-4.386;2023-04-01T01:12:57;12.14;77.41
73547;SHT30;61807;48.384;-4.386;2023-04-01T01:26:50;11.99;77.41
73547;SHT30;61807;48.384;-4.386;2023-04-01T01:34:46;11.99;77.40
73547;SHT30;61807;48.384;-4.386;2023-04-01T01:37:13;12.01;77.37
73547;SHT30;61807;48.384;-4.386;2023-04-01T01:39:42;11.99;77.21
73547;SHT30;61807;48.384;-4.386;2023-04-01T01:42:12;11.97;77.36
73547;SHT30;61807;48.384;-4.386;2023-04-01T01:44:40;11.98;77.30
73547;SHT30;61807;48.384;-4.386;2023-04-01T01:47:07;11.98;77.27
73547;SHT30;61807;48.384;-4.386;2023-04-01T01:49:35;11.99;77.27
73547;SHT30;61807;48.384;-4.386;2023-04-01T01:52:01;11.97;77.32
73547;SHT30;61807;48.384;-4.386;2023-04-01T01:54:26;11.97;77.29
73547;SHT30;61807;48.384;-4.386;2023-04-01T01:57:04;12.01;77.35
73547;SHT30;61807;48.384;-4.386;2023-04-01T01:59:33;11.99;77.32
73547;SHT30;61807;48.384;-4.386;2023-04-01T02:02:00;11.98;77.32
73547;SHT30;61807;48.384;-4.386;2023-04-01T02:04:26;11.99;77.36
73547;SHT30;61807;48.384;-4.386;2023-04-01T02:07:02;11.97;77.34
73547;SHT30;61807;48.384;-4.386;2023-04-01T02:09:29;11.97;77.38
73547;SHT30;61807;48.384;-4.386;2023-04-01T02:12:01;11.99;77.42
73547;SHT30;61807;48.384;-4.386;2023-04-01T02:14:41;11.98;77.44
73547;SHT30;61807;48.384;-4.386;2023-04-01T02:17:14;11.98;77.54
73547;SHT30;61807;48.384;-4.386;2023-04-01T02:19:47;12.01;77.58
73547;SHT30;61807;48.384;-4.386;2023-04-01T02:22:18;12.04;77.51
73547;SHT30;61807;48.384;-4.386;2023-04-01T02:24:46;12.02;77.48
73547;SHT30;61807;48.384;-4.386;2023-04-01T02:27:12;11.99;77.49
73547;SHT30;61807;48.384;-4.386;2023-04-01T02:29:37;12.01;77.37
73547;SHT30;61807;48.384;-4.386;2023-04-01T02:32:05;12.01;77.37
73547;SHT30;61807;48.384;-4.386;2023-04-01T02:34:32;12.01;77.52
73547;SHT30;61807;48.384;-4.386;2023-04-01T02:36:58;11.99;77.56
73547;SHT30;61807;48.384;-4.386;2023-04-01T02:39:24;12.02;77.53
73547;SHT30;61807;48.384;-4.386;2023-04-01T02:41:51;12.01;77.43
73547;SHT30;61807;48.384;-4.386;2023-04-01T02:44:16;11.98;77.38
73547;SHT30;61807;48.384;-4.386;2023-04-01T02:46:42;11.97;77.27
73547;SHT30;61807;48.384;-4.386;2023-04-01T02:49:07;11.95;77.15
73547;SHT30;61807;48.384;-4.386;2023-04-01T02:51:33;11.88;77.11
73547;SHT30;61807;48.384;-4.386;2023-04-01T02:53:59;11.87;77.27
73547;SHT30;61807;48.384;-4.386;2023-04-01T02:56:24;11.88;77.29
73547;SHT30;61807;48.384;-4.386;2023-04-01T02:58:51;11.90;77.34
73547;SHT30;61807;48.384;-4.386;2023-04-01T03:01:16;11.91;77.28
73547;SHT30;61807;48.384;-4.386;2023-04-01T03:03:42;11.90;77.27
73547;SHT30;61807;48.384;-4.386;2023-04-01T03:06:09;11.87;77.22
73547;SHT30;61807;48.384;-4.386;2023-04-01T03:08:35;11.88;77.15
73547;SHT30;61807;48.384;-4.386;2023-04-01T03:11:00;11.84;77.21
73547;SHT30;61807;48.384;-4.386;2023-04-01T03:13:26;11.84;77.20
73547;SHT30;61807;48.384;-4.386;2023-04-01T03:15:51;11.84;77.17
73547;SHT30;61807;48.384;-4.386;2023-04-01T03:18:17;11.81;77.06
73547;SHT30;61807;48.384;-4.386;2023-04-01T03:20:42;11.78;77.13
73547;SHT30;61807;48.384;-4.386;2023-04-01T03:23:08;11.75;77.05
73547;SHT30;61807;48.384;-4.386;2023-04-01T03:25:34;11.73;77.01
73547;SHT30;61807;48.384;-4.386;2023-04-01T03:27:59;11.71;77.06
73547;SHT30;61807;48.384;-4.386;2023-04-01T03:30:25;11.70;77.10
73547;SHT30;61807;48.384;-4.386;2023-04-01T03:32:51;11.71;77.08
73547;SHT30;61807;48.384;-4.386;2023-04-01T03:35:17;11.73;77.04
73547;SHT30;61807;48.384;-4.386;2023-04-01T03:37:42;11.71;77.05
73547;SHT30;61807;48.384;-4.386;2023-04-01T03:40:08;11.74;77.07
73547;SHT30;61807;48.384;-4.386;2023-04-01T03:42:34;11.71;77.06
73547;SHT30;61807;48.384;-4.386;2023-04-01T03:45:00;11.74;77.09
73547;SHT30;61807;48.384;-4.386;2023-04-01T03:47:25;11.75;77.12
73547;SHT30;61807;48.384;-4.386;2023-04-01T03:49:50;11.74;77.18
73547;SHT30;61807;48.384;-4.386;2023-04-01T03:52:16;11.75;77.22
73547;SHT30;61807;48.384;-4.386;2023-04-01T03:54:41;11.80;77.16
73547;SHT30;61807;48.384;-4.386;2023-04-01T03:57:06;11.78;77.08
73547;SHT30;61807;48.384;-4.386;2023-04-01T03:59:32;11.77;77.06
73547;SHT30;61807;48.384;-4.386;2023-04-01T04:01:57;11.78;76.99
73547;SHT30;61807;48.384;-4.386;2023-04-01T04:04:23;11.78;76.94
73547;SHT30;61807;48.384;-4.386;2023-04-01T04:06:48;11.77;76.90
73547;SHT30;61807;48.384;-4.386;2023-04-01T04:09:14;11.77;76.79
73547;SHT30;61807;48.384;-4.386;2023-04-01T04:11:39;11.74;76.76
73547;SHT30;61807;48.384;-4.386;2023-04-01T04:14:05;11.73;76.75
73547;SHT30;61807;48.384;-4.386;2023-04-01T04:16:30;11.70;76.73
73547;SHT30;61807;48.384;-4.386;2023-04-01T04:18:56;11.70;76.77
73547;SHT30;61807;48.384;-4.386;2023-04-01T04:21:21;11.69;76.78
73547;SHT30;61807;48.384;-4.386;2023-04-01T04:23:47;11.66;76.73
73547;SHT30;61807;48.384;-4.386;2023-04-01T04:26:13;11.63;76.71
73547;SHT30;61807;48.384;-4.386;2023-04-01T04:28:40;11.59;76.87
73547;SHT30;61807;48.384;-4.386;2023-04-01T04:31:05;11.60;76.82
73547;SHT30;61807;48.384;-4.386;2023-04-01T04:33:32;11.63;76.95
73547;SHT30;61807;48.384;-4.386;2023-04-01T04:35:58;11.66;76.95
73547;SHT30;61807;48.384;-4.386;2023-04-01T04:38:24;11.66;76.96
73547;SHT30;61807;48.384;-4.386;2023-04-01T04:40:50;11.70;76.99
73547;SHT30;61807;48.384;-4.386;2023-04-01T04:43:17;11.73;76.97
73547;SHT30;61807;48.384;-4.386;2023-04-01T04:45:43;11.73;76.97
73547;SHT30;61807;48.384;-4.386;2023-04-01T04:48:11;11.74;76.93
73547;SHT30;61807;48.384;-4.386;2023-04-01T04:50:41;11.71;76.98
73547;SHT30;61807;48.384;-4.386;2023-04-01T04:53:08;11.70;77.01
73547;SHT30;61807;48.384;-4.386;2023-04-01T04:55:34;11.67;76.98
73547;SHT30;61807;48.384;-4.386;2023-04-01T04:57:59;11.63;77.03
73547;SHT30;61807;48.384;-4.386;2023-04-01T05:00:25;11.59;77.05
73547;SHT30;61807;48.384;-4.386;2023-04-01T05:02:50;11.57;77.14
73547;SHT30;61807;48.384;-4.386;2023-04-01T05:05:16;11.54;77.17
73547;SHT30;61807;48.384;-4.386;2023-04-01T05:07:41;11.53;77.22
73547;SHT30;61807;48.384;-4.386;2023-04-01T05:10:07;11.52;77.11
73547;SHT30;61807;48.384;-4.386;2023-04-01T05:12:32;11.50;76.94
73547;SHT30;61807;48.384;-4.386;2023-04-01T05:15:02;11.44;77.03
73547;SHT30;61807;48.384;-4.386;2023-04-01T05:17:28;11.43;77.01
73547;SHT30;61807;48.384;-4.386;2023-04-01T05:19:53;11.42;77.00
73547;SHT30;61807;48.384;-4.386;2023-04-01T05:22:18;11.34;77.06
73547;SHT30;61807;48.384;-4.386;2023-04-01T05:24:44;11.34;77.21
73547;SHT30;61807;48.384;-4.386;2023-04-01T05:27:10;11.34;77.19
73547;SHT30;61807;48.384;-4.386;2023-04-01T05:29:35;11.33;77.25
73547;SHT30;61807;48.384;-4.386;2023-04-01T05:32:01;11.34;77.34
73547;SHT30;61807;48.384;-4.386;2023-04-01T05:34:26;11.34;77.40
73547;SHT30;61807;48.384;-4.386;2023-04-01T05:36:51;11.40;77.45
73547;SHT30;61807;48.384;-4.386;2023-04-01T05:39:17;11.43;77.57
73547;SHT30;61807;48.384;-4.386;2023-04-01T05:41:43;11.46;77.69
73547;SHT30;61807;48.384;-4.386;2023-04-01T05:44:11;11.47;77.72
73547;SHT30;61807;48.384;-4.386;2023-04-01T05:46:37;11.52;77.86
73547;SHT30;61807;48.384;-4.386;2023-04-01T05:49:02;11.54;77.83
73547;SHT30;61807;48.384;-4.386;2023-04-01T05:51:28;11.53;77.81
73547;SHT30;61807;48.384;-4.386;2023-04-01T05:53:53;11.52;77.70
73547;SHT30;61807;48.384;-4.386;2023-04-01T05:56:18;11.53;77.70
73547;SHT30;61807;48.384;-4.386;2023-04-01T05:58:47;11.49;77.69
73547;SHT30;61807;48.384;-4.386;2023-04-01T06:01:15;11.49;77.69
73547;SHT30;61807;48.384;-4.386;2023-04-01T06:03:41;11.46;77.64
73547;SHT30;61807;48.384;-4.386;2023-04-01T06:06:14;11.43;77.66
73547;SHT30;61807;48.384;-4.386;2023-04-01T06:08:40;11.42;77.70
73547;SHT30;61807;48.384;-4.386;2023-04-01T06:14:10;11.33;77.65
73547;SHT30;61807;48.384;-4.386;2023-04-01T06:23:08;11.32;77.89
73547;SHT30;61807;48.384;-4.386;2023-04-01T06:44:37;11.27;78.55
73547;SHT30;61807;48.384;-4.386;2023-04-01T06:47:33;11.22;78.54
73547;SHT30;61807;48.384;-4.386;2023-04-01T06:55:37;11.32;78.64
73547;SHT30;61807;48.384;-4.386;2023-04-01T06:58:21;11.34;78.48
73547;SHT30;61807;48.384;-4.386;2023-04-01T07:00:50;11.40;78.43
73547;SHT30;61807;48.384;-4.386;2023-04-01T07:03:23;11.40;78.40
73547;SHT30;61807;48.384;-4.386;2023-04-01T07:05:51;11.47;78.46
73547;SHT30;61807;48.384;-4.386;2023-04-01T07:08:22;11.56;78.55
73547;SHT30;61807;48.384;-4.386;2023-04-01T07:10:58;11.67;78.52
73547;SHT30;61807;48.384;-4.386;2023-04-01T07:16:20;11.88;78.34
73547;SHT30;61807;48.384;-4.386;2023-04-01T07:19:03;11.88;78.09
73547;SHT30;61807;48.384;-4.386;2023-04-01T07:21:38;11.94;78.01
73547;SHT30;61807;48.384;-4.386;2023-04-01T07:24:11;11.95;77.96
73547;SHT30;61807;48.384;-4.386;2023-04-01T07:26:40;11.88;77.80
73547;SHT30;61807;48.384;-4.386;2023-04-01T07:29:12;11.88;77.75
73547;SHT30;61807;48.384;-4.386;2023-04-01T07:37:15;11.98;77.87
73547;SHT30;61807;48.384;-4.386;2023-04-01T07:45:02;12.29;77.27
73547;SHT30;61807;48.384;-4.386;2023-04-01T07:48:10;12.41;76.83
73547;SHT30;61807;48.384;-4.386;2023-04-01T07:53:39;12.42;76.01
73547;SHT30;61807;48.384;-4.386;2023-04-01T07:56:11;12.35;75.80
73547;SHT30;61807;48.384;-4.386;2023-04-01T08:01:41;12.18;75.77
73547;SHT30;61807;48.384;-4.386;2023-04-01T08:15:27;12.75;75.72
73547;SHT30;61807;48.384;-4.386;2023-04-01T08:20:36;12.84;75.06
73547;SHT30;61807;48.384;-4.386;2023-04-01T08:23:07;12.90;75.21
73547;SHT30;61807;48.384;-4.386;2023-04-01T08:25:40;12.94;74.94
73547;SHT30;61807;48.384;-4.386;2023-04-01T08:28:27;12.96;74.04
73547;SHT30;61807;48.384;-4.386;2023-04-01T08:30:57;13.01;74.34
73547;SHT30;61807;48.384;-4.386;2023-04-01T08:33:29;13.10;74.32
73547;SHT30;61807;48.384;-4.386;2023-04-01T08:35:57;13.27;74.18
73547;SHT30;61807;48.384;-4.386;2023-04-01T08:38:36;13.42;73.27
73547;SHT30;61807;48.384;-4.386;2023-04-01T08:49:56;13.49;72.29
73547;SHT30;61807;48.384;-4.386;2023-04-01T08:52:35;13.35;71.96
73547;SHT30;61807;48.384;-4.386;2023-04-01T08:55:25;13.22;72.22
73547;SHT30;61807;48.384;-4.386;2023-04-01T09:00:42;13.04;72.66
73547;SHT30;61807;48.384;-4.386;2023-04-01T09:03:37;13.12;72.54
73547;SHT30;61807;48.384;-4.386;2023-04-01T09:17:19;14.27;70.18
73547;SHT30;61807;48.384;-4.386;2023-04-01T09:20:19;14.26;68.69
73547;SHT30;61807;48.384;-4.386;2023-04-01T09:23:10;14.16;69.00
73547;SHT30;61807;48.384;-4.386;2023-04-01T09:29:23;14.10;67.84
73547;SHT30;61807;48.384;-4.386;2023-04-01T09:34:30;13.79;68.61
73547;SHT30;61807;48.384;-4.386;2023-04-01T09:39:35;13.47;69.56
73547;SHT30;61807;48.384;-4.386;2023-04-01T09:44:35;13.06;70.75
73547;SHT30;61807;48.384;-4.386;2023-04-01T09:47:24;12.91;71.36
73547;SHT30;61807;48.384;-4.386;2023-04-01T10:36:41;13.55;69.43
73547;SHT30;61807;48.384;-4.386;2023-04-01T10:45:19;13.47;69.48
73547;SHT30;61807;48.384;-4.386;2023-04-01T10:56:50;13.78;68.59
73547;SHT30;61807;48.384;-4.386;2023-04-01T10:59:51;13.99;68.67
73547;SHT30;61807;48.384;-4.386;2023-04-01T11:05:29;14.20;67.43
73547;SHT30;61807;48.384;-4.386;2023-04-01T11:08:48;14.20;66.96
73547;SHT30;61807;48.384;-4.386;2023-04-01T11:17:09;14.14;68.57
73547;SHT30;61807;48.384;-4.386;2023-04-01T11:22:55;14.24;68.36
73547;SHT30;61807;48.384;-4.386;2023-04-01T11:31:04;14.36;66.98
73547;SHT30;61807;48.384;-4.386;2023-04-01T11:36:25;14.67;67.92
73547;SHT30;61807;48.384;-4.386;2023-04-01T11:38:57;14.85;67.31
73547;SHT30;61807;48.384;-4.386;2023-04-01T11:41:30;15.00;67.48
73547;SHT30;61807;48.384;-4.386;2023-04-01T11:44:24;15.50;66.00
73547;SHT30;61807;48.384;-4.386;2023-04-01T11:58:28;16.22;64.55
73547;SHT30;61807;48.384;-4.386;2023-04-01T12:26:59;17.48;61.49
73547;SHT30;61807;48.384;-4.386;2023-04-01T12:45:47;17.45;62.10
73547;SHT30;61807;48.384;-4.386;2023-04-01T12:56:30;16.73;62.17
73547;SHT30;61807;48.384;-4.386;2023-04-01T12:59:45;16.93;62.35
73547;SHT30;61807;48.384;-4.386;2023-04-01T13:10:17;17.38;61.16
73547;SHT30;61807;48.384;-4.386;2023-04-01T13:18:03;16.63;61.24
73547;SHT30;61807;48.384;-4.386;2023-04-01T13:21:05;16.62;61.49
73547;SHT30;61807;48.384;-4.386;2023-04-01T13:29:12;16.49;61.08
73547;SHT30;61807;48.384;-4.386;2023-04-01T13:34:32;16.35;61.65
73547;SHT30;61807;48.384;-4.386;2023-04-01T13:37:22;16.18;62.42
73547;SHT30;61807;48.384;-4.386;2023-04-01T13:40:04;16.06;63.15
73547;SHT30;61807;48.384;-4.386;2023-04-01T13:45:47;15.98;63.43
73547;SHT30;61807;48.384;-4.386;2023-04-01T14:01:33;17.32;58.60
73547;SHT30;61807;48.384;-4.386;2023-04-01T14:07:16;17.52;58.67
73547;SHT30;61807;48.384;-4.386;2023-04-01T14:19:21;17.76;58.53
73547;SHT30;61807;48.384;-4.386;2023-04-01T14:21:34;17.25;58.45
73547;SHT30;61807;48.384;-4.386;2023-04-01T14:37:04;18.98;57.02
73547;SHT30;61807;48.384;-4.386;2023-04-01T14:39:57;18.67;56.82
73547;SHT30;61807;48.384;-4.386;2023-04-01T14:47:59;18.87;57.61
73547;SHT30;61807;48.384;-4.386;2023-04-01T14:50:31;18.75;58.40
73547;SHT30;61807;48.384;-4.386;2023-04-01T14:53:23;18.84;58.03
73547;SHT30;61807;48.384;-4.386;2023-04-01T14:55:53;18.68;58.03
73547;SHT30;61807;48.384;-4.386;2023-04-01T14:58:22;18.21;57.50
73547;SHT30;61807;48.384;-4.386;2023-04-01T15:06:42;16.84;60.32
73547;SHT30;61807;48.384;-4.386;2023-04-01T15:09:37;16.63;61.48
73547;SHT30;61807;48.384;-4.386;2023-04-01T15:18:07;16.15;62.36
73547;SHT30;61807;48.384;-4.386;2023-04-01T15:20:54;16.16;62.43
73547;SHT30;61807;48.384;-4.386;2023-04-01T15:23:49;16.04;62.49
73547;SHT30;61807;48.384;-4.386;2023-04-01T15:32:24;15.42;63.90
73547;SHT30;61807;48.384;-4.386;2023-04-01T15:34:56;15.29;64.62
73547;SHT30;61807;48.384;-4.386;2023-04-01T15:37:42;15.26;64.90
73547;SHT30;61807;48.384;-4.386;2023-04-01T15:40:30;15.23;65.29
73547;SHT30;61807;48.384;-4.386;2023-04-01T15:48:57;14.93;66.18
73547;SHT30;61807;48.384;-4.386;2023-04-01T16:20:18;14.23;67.47
73547;SHT30;61807;48.384;-4.386;2023-04-01T16:24:12;14.21;67.66
73547;SHT30;61807;48.384;-4.386;2023-04-01T16:28:52;14.20;67.99
73547;SHT30;61807;48.384;-4.386;2023-04-01T16:31:48;14.13;68.10
73547;SHT30;61807;48.384;-4.386;2023-04-01T16:34:18;14.09;68.46
73547;SHT30;61807;48.384;-4.386;2023-04-01T16:36:50;14.07;68.39
73547;SHT30;61807;48.384;-4.386;2023-04-01T16:39:47;14.05;68.47
73547;SHT30;61807;48.384;-4.386;2023-04-01T16:47:45;13.95;69.11
73547;SHT30;61807;48.384;-4.386;2023-04-01T16:50:21;14.02;68.67
73547;SHT30;61807;48.384;-4.386;2023-04-01T16:55:18;14.00;68.66
73547;SHT30;61807;48.384;-4.386;2023-04-01T16:57:50;14.02;68.77
73547;SHT30;61807;48.384;-4.386;2023-04-01T17:03:13;13.99;68.83
73547;SHT30;61807;48.384;-4.386;2023-04-01T17:12:13;13.65;69.97
73547;SHT30;61807;48.384;-4.386;2023-04-01T17:17:29;13.48;71.04
73547;SHT30;61807;48.384;-4.386;2023-04-01T17:20:09;13.42;71.14
73547;SHT30;61807;48.384;-4.386;2023-04-01T17:22:46;13.41;71.02
73547;SHT30;61807;48.384;-4.386;2023-04-01T17:26:00;13.34;71.15
73547;SHT30;61807;48.384;-4.386;2023-04-01T17:35:34;13.21;71.86
73547;SHT30;61807;48.384;-4.386;2023-04-01T17:41:06;13.12;72.35
73547;SHT30;61807;48.384;-4.386;2023-04-01T17:43:58;13.14;72.45
73547;SHT30;61807;48.384;-4.386;2023-04-01T17:51:38;13.15;72.70
73547;SHT30;61807;48.384;-4.386;2023-04-01T17:54:24;13.15;72.79
73547;SHT30;61807;48.384;-4.386;2023-04-01T17:59:37;13.21;73.57
73547;SHT30;61807;48.384;-4.386;2023-04-01T18:02:17;13.17;73.73
73547;SHT30;61807;48.384;-4.386;2023-04-01T18:10:25;13.07;74.81
73547;SHT30;61807;48.384;-4.386;2023-04-01T18:19:01;12.97;75.52
73547;SHT30;61807;48.384;-4.386;2023-04-01T18:21:56;12.94;75.56
73547;SHT30;61807;48.384;-4.386;2023-04-01T18:24:33;12.96;75.66
73547;SHT30;61807;48.384;-4.386;2023-04-01T18:27:02;12.91;75.60
73547;SHT30;61807;48.384;-4.386;2023-04-01T18:29:41;12.89;75.78
73547;SHT30;61807;48.384;-4.386;2023-04-01T18:32:34;12.81;75.88
73547;SHT30;61807;48.384;-4.386;2023-04-01T18:40:40;12.75;75.96
73547;SHT30;61807;48.384;-4.386;2023-04-01T18:43:51;12.75;76.07
73547;SHT30;61807;48.384;-4.386;2023-04-01T18:46:38;12.75;76.17
73547;SHT30;61807;48.384;-4.386;2023-04-01T18:49:25;12.81;76.26
73547;SHT30;61807;48.384;-4.386;2023-04-01T18:51:58;12.83;76.35
73547;SHT30;61807;48.384;-4.386;2023-04-01T18:56:50;12.87;76.35
73547;SHT30;61807;48.384;-4.386;2023-04-01T18:59:34;12.86;76.48
73547;SHT30;61807;48.384;-4.386;2023-04-01T19:04:37;12.89;76.60
73547;SHT30;61807;48.384;-4.386;2023-04-01T19:09:49;12.83;76.96
73547;SHT30;61807;48.384;-4.386;2023-04-01T19:12:37;12.80;77.02
73547;SHT30;61807;48.384;-4.386;2023-04-01T19:20:57;12.76;77.24
73547;SHT30;61807;48.384;-4.386;2023-04-01T19:23:50;12.73;77.60
73547;SHT30;61807;48.384;-4.386;2023-04-01T19:32:31;12.66;77.63
73547;SHT30;61807;48.384;-4.386;2023-04-01T19:35:12;12.66;77.65
73547;SHT30;61807;48.384;-4.386;2023-04-01T19:38:06;12.62;77.65
73547;SHT30;61807;48.384;-4.386;2023-04-01T19:43:39;12.55;77.88
73547;SHT30;61807;48.384;-4.386;2023-04-01T20:00:30;12.46;78.00
73547;SHT30;61807;48.384;-4.386;2023-04-01T20:11:58;12.52;78.00
73547;SHT30;61807;48.384;-4.386;2023-04-01T20:14:45;12.50;77.88
73547;SHT30;61807;48.384;-4.386;2023-04-01T20:19:58;12.46;77.98
73547;SHT30;61807;48.384;-4.386;2023-04-01T20:25:24;12.46;78.02
73547;SHT30;61807;48.384;-4.386;2023-04-01T20:27:58;12.38;78.04
73547;SHT30;61807;48.384;-4.386;2023-04-01T20:31:27;12.36;78.14
73547;SHT30;61807;48.384;-4.386;2023-04-01T20:44:12;12.31;78.31
73547;SHT30;61807;48.384;-4.386;2023-04-01T20:46:48;12.31;78.37
73547;SHT30;61807;48.384;-4.386;2023-04-01T20:52:34;12.28;78.30
73547;SHT30;61807;48.384;-4.386;2023-04-01T20:55:47;12.28;78.34
73547;SHT30;61807;48.384;-4.386;2023-04-01T21:04:36;12.24;78.40
73547;SHT30;61807;48.384;-4.386;2023-04-01T21:07:02;12.25;78.45
73547;SHT30;61807;48.384;-4.386;2023-04-01T21:09:41;12.24;78.50
73547;SHT30;61807;48.384;-4.386;2023-04-01T21:12:43;12.25;78.48
73547;SHT30;61807;48.384;-4.386;2023-04-01T21:43:31;12.25;78.07
73547;SHT30;61807;48.384;-4.386;2023-04-01T21:51:33;12.28;78.10
73547;SHT30;61807;48.384;-4.386;2023-04-01T22:08:48;12.35;78.04
73547;SHT30;61807;48.384;-4.386;2023-04-01T22:14:08;12.33;77.94
73547;SHT30;61807;48.384;-4.386;2023-04-01T22:16:47;12.35;77.94
73547;SHT30;61807;48.384;-4.386;2023-04-01T22:19:20;12.36;77.90
73547;SHT30;61807;48.384;-4.386;2023-04-01T22:27:28;12.38;77.99
73547;SHT30;61807;48.384;-4.386;2023-04-01T22:33:14;12.41;77.85
73547;SHT30;61807;48.384;-4.386;2023-04-01T22:39:04;12.36;77.92
73547;SHT30;61807;48.384;-4.386;2023-04-01T22:47:36;12.33;77.95
73547;SHT30;61807;48.384;-4.386;2023-04-01T22:51:00;12.31;77.93
73547;SHT30;61807;48.384;-4.386;2023-04-01T22:53:21;12.29;77.86
73547;SHT30;61807;48.384;-4.386;2023-04-01T22:55:51;12.29;77.89
73547;SHT30;61807;48.384;-4.386;2023-04-01T22:58:30;12.25;77.88
73547;SHT30;61807;48.384;-4.386;2023-04-01T23:01:00;12.28;77.95
73547;SHT30;61807;48.384;-4.386;2023-04-01T23:03:31;12.31;77.96
73547;SHT30;61807;48.384;-4.386;2023-04-01T23:05:59;12.31;77.81
73547;SHT30;61807;48.384;-4.386;2023-04-01T23:11:35;12.32;77.82
73547;SHT30;61807;48.384;-4.386;2023-04-01T23:14:34;12.32;77.79
73547;SHT30;61807;48.384;-4.386;2023-04-01T23:17:21;12.32;77.73
73547;SHT30;61807;48.384;-4.386;2023-04-01T23:25:56;12.36;77.74
73547;SHT30;61807;48.384;-4.386;2023-04-01T23:30:57;12.36;77.63
73547;SHT30;61807;48.384;-4.386;2023-04-01T23:33:27;12.35;77.66
73547;SHT30;61807;48.384;-4.386;2023-04-01T23:36:13;12.32;77.66
73547;SHT30;61807;48.384;-4.386;2023-04-01T23:38:41;12.29;77.60
73547;SHT30;61807;48.384;-4.386;2023-04-01T23:41:16;12.28;77.60
73547;SHT30;61807;48.384;-4.386;2023-04-01T23:43:43;12.25;77.56
73547;SHT30;61807;48.384;-4.386;2023-04-01T23:46:11;12.20;77.49
73547;SHT30;61807;48.384;-4.386;2023-04-01T23:48:40;12.18;77.56
73547;SHT30;61807;48.384;-4.386;2023-04-01T23:51:27;12.14;77.61
73547;SHT30;61807;48.384;-4.386;2023-04-01T23:54:24;12.15;77.63
73547;SHT30;61807;48.384;-4.386;2023-04-01T23:56:55;12.12;77.65
73547;SHT30;61807;48.384;-4.386;2023-04-01T23:59:30;12.12;77.66
